createdAt,value
2022-12-23T00:02:29.139Z,99.30
2022-12-23T00:05:01.285Z,99.18
2022-12-23T00:07:33.174Z,99.43
2022-12-23T00:10:06.388Z,99.41
2022-12-23T00:12:56.168Z,99.36
2022-12-23T00:15:28.691Z,99.55
2022-12-23T00:18:00.809Z,99.69
2022-12-23T00:20:36.633Z,99.60
2022-12-23T00:23:11.385Z,99.87
2022-12-23T00:25:51.102Z,99.84
2022-12-23T00:28:30.132Z,99.87
2022-12-23T00:31:05.017Z,99.61
2022-12-23T00:33:45.710Z,99.96
2022-12-23T00:36:27.674Z,100.00
2022-12-23T00:39:25.357Z,100.00
2022-12-23T00:42:22.767Z,100.00
2022-12-23T00:45:15.276Z,100.00
2022-12-23T00:48:06.653Z,100.00
2022-12-23T00:50:48.447Z,100.00
2022-12-23T00:53:23.448Z,100.00
2022-12-23T00:55:55.701Z,100.00
2022-12-23T00:58:32.495Z,100.00
2022-12-23T01:01:23.201Z,100.00
2022-12-23T01:04:18.120Z,100.00
2022-12-23T01:07:17.008Z,100.00
2022-12-23T01:09:51.311Z,100.00
2022-12-23T01:12:29.690Z,100.00
2022-12-23T01:15:03.526Z,100.00
2022-12-23T01:17:35.473Z,100.00
2022-12-23T01:20:11.851Z,100.00
2022-12-23T01:22:43.911Z,100.00
2022-12-23T01:25:16.284Z,100.00
2022-12-23T01:27:48.107Z,100.00
2022-12-23T01:30:20.129Z,100.00
2022-12-23T01:32:52.120Z,100.00
2022-12-23T01:35:24.210Z,100.00
2022-12-23T01:37:56.030Z,100.00
2022-12-23T01:40:27.992Z,100.00
2022-12-23T01:43:01.879Z,100.00
2022-12-23T01:45:34.639Z,100.00
2022-12-23T01:48:15.526Z,100.00
2022-12-23T01:50:50.068Z,100.00
2022-12-23T01:53:23.851Z,100.00
2022-12-23T01:55:59.677Z,100.00
2022-12-23T01:58:34.475Z,100.00
2022-12-23T02:01:24.729Z,100.00
2022-12-23T02:04:00.168Z,100.00
2022-12-23T02:06:52.378Z,100.00
2022-12-23T02:09:26.753Z,100.00
2022-12-23T02:12:25.218Z,100.00
2022-12-23T02:15:35.284Z,100.00
2022-12-23T02:18:17.980Z,100.00
2022-12-23T02:21:06.275Z,100.00
2022-12-23T02:24:05.125Z,100.00
2022-12-23T02:26:59.917Z,100.00
2022-12-23T02:30:05.656Z,100.00
2022-12-23T02:33:10.565Z,100.00
2022-12-23T02:35:54.626Z,100.00
2022-12-23T02:38:38.150Z,100.00
2022-12-23T02:41:22.331Z,100.00
2022-12-23T02:44:00.860Z,100.00
2022-12-23T02:46:59.775Z,100.00
2022-12-23T02:49:36.503Z,100.00
2022-12-23T02:52:13.300Z,100.00
2022-12-23T03:03:12.051Z,100.00
2022-12-23T03:06:19.345Z,100.00
2022-12-23T03:09:17.100Z,100.00
2022-12-23T03:12:37.799Z,100.00
2022-12-23T03:16:23.181Z,100.00
2022-12-23T03:19:30.392Z,100.00
2022-12-23T03:22:30.755Z,100.00
2022-12-23T03:25:28.386Z,100.00
2022-12-23T03:28:07.290Z,100.00
2022-12-23T03:32:07.478Z,100.00
2022-12-23T03:53:03.333Z,100.00
2022-12-23T03:56:21.785Z,100.00
2022-12-23T03:58:57.030Z,100.00
2022-12-23T04:01:34.474Z,100.00
2022-12-23T04:04:10.723Z,100.00
2022-12-23T04:06:47.011Z,100.00
2022-12-23T04:09:22.604Z,100.00
2022-12-23T04:11:55.087Z,100.00
2022-12-23T04:14:28.197Z,100.00
2022-12-23T04:17:00.604Z,100.00
2022-12-23T04:19:33.698Z,100.00
2022-12-23T04:22:08.953Z,100.00
2022-12-23T04:24:42.911Z,100.00
2022-12-23T04:27:21.470Z,100.00
2022-12-23T04:29:56.306Z,100.00
2022-12-23T04:32:46.347Z,100.00
2022-12-23T04:35:26.570Z,100.00
2022-12-23T04:38:05.756Z,100.00
2022-12-23T04:41:06.555Z,100.00
2022-12-23T04:44:01.520Z,100.00
2022-12-23T04:46:37.286Z,100.00
2022-12-23T04:49:12.493Z,100.00
2022-12-23T04:51:51.777Z,100.00
2022-12-23T04:54:28.461Z,100.00
2022-12-23T04:57:06.493Z,100.00
2022-12-23T04:59:45.011Z,100.00
2022-12-23T05:02:17.119Z,100.00
2022-12-23T05:04:49.289Z,100.00
2022-12-23T05:07:40.027Z,100.00
2022-12-23T05:10:25.035Z,100.00
2022-12-23T05:12:56.940Z,100.00
2022-12-23T05:15:29.265Z,100.00
2022-12-23T05:18:03.380Z,100.00
2022-12-23T05:20:53.078Z,100.00
2022-12-23T05:23:30.836Z,100.00
2022-12-23T05:26:03.118Z,100.00
2022-12-23T05:28:39.475Z,100.00
2022-12-23T05:31:17.466Z,100.00
2022-12-23T05:34:02.337Z,100.00
2022-12-23T05:36:38.420Z,100.00
2022-12-23T05:39:17.922Z,100.00
2022-12-23T05:41:50.198Z,100.00
2022-12-23T05:44:26.819Z,100.00
2022-12-23T05:47:01.748Z,100.00
2022-12-23T05:49:36.911Z,100.00
2022-12-23T05:52:16.571Z,100.00
2022-12-23T05:54:51.831Z,100.00
2022-12-23T05:57:34.159Z,100.00
2022-12-23T06:00:21.797Z,100.00
2022-12-23T06:02:54.689Z,100.00
2022-12-23T06:05:27.315Z,100.00
2022-12-23T06:08:06.361Z,100.00
2022-12-23T06:10:44.953Z,100.00
2022-12-23T06:13:17.562Z,100.00
2022-12-23T06:15:51.254Z,100.00
2022-12-23T06:18:23.936Z,99.98
2022-12-23T06:20:56.033Z,100.00
2022-12-23T06:23:27.857Z,99.94
2022-12-23T06:26:03.236Z,99.88
2022-12-23T06:28:35.481Z,99.95
2022-12-23T06:31:26.080Z,100.00
2022-12-23T06:33:59.573Z,99.94
2022-12-23T06:36:34.394Z,99.90
2022-12-23T06:39:06.577Z,99.77
2022-12-23T06:41:38.588Z,99.67
2022-12-23T06:44:13.079Z,99.92
2022-12-23T06:46:45.171Z,99.73
2022-12-23T06:49:28.012Z,99.87
2022-12-23T06:52:03.169Z,99.82
2022-12-23T06:54:46.230Z,99.66
2022-12-23T06:57:22.595Z,99.76
2022-12-23T07:00:03.246Z,99.87
2022-12-23T07:02:46.524Z,99.67
2022-12-23T07:05:36.925Z,99.65
2022-12-23T07:08:15.141Z,99.84
2022-12-23T07:10:53.153Z,99.63
2022-12-23T07:13:25.239Z,99.74
2022-12-23T07:15:57.349Z,99.67
2022-12-23T07:18:29.256Z,99.65
2022-12-23T07:21:02.689Z,99.61
2022-12-23T07:23:34.879Z,99.59
2022-12-23T07:26:06.990Z,99.89
2022-12-23T07:28:39.925Z,99.57
2022-12-23T07:31:12.139Z,99.77
2022-12-23T07:33:47.966Z,99.84
2022-12-23T07:36:25.642Z,99.64
2022-12-23T07:39:07.119Z,99.69
2022-12-23T07:41:39.438Z,99.73
2022-12-23T07:44:12.337Z,99.43
2022-12-23T07:46:44.524Z,99.76
2022-12-23T07:49:16.623Z,99.40
2022-12-23T07:51:49.796Z,99.24
2022-12-23T07:54:21.882Z,99.16
2022-12-23T07:56:58.229Z,98.99
2022-12-23T07:59:30.620Z,98.87
2022-12-23T08:02:03.994Z,98.88
2022-12-23T08:04:42.646Z,98.90
2022-12-23T08:07:18.053Z,99.03
2022-12-23T08:09:49.952Z,98.86
2022-12-23T08:12:21.854Z,99.14
2022-12-23T08:14:53.756Z,98.96
2022-12-23T08:17:28.941Z,98.97
2022-12-23T08:20:00.749Z,98.69
2022-12-23T08:22:33.793Z,98.55
2022-12-23T08:25:06.790Z,98.75
2022-12-23T08:27:38.756Z,98.69
2022-12-23T08:30:14.119Z,98.54
2022-12-23T08:32:46.086Z,98.66
2022-12-23T08:35:27.272Z,98.75
2022-12-23T08:37:59.480Z,98.55
2022-12-23T08:40:31.331Z,98.66
2022-12-23T08:43:03.439Z,98.51
2022-12-23T08:45:39.629Z,98.71
2022-12-23T08:48:15.017Z,98.46
2022-12-23T08:50:47.829Z,98.71
2022-12-23T08:53:20.229Z,98.85
2022-12-23T08:55:52.650Z,98.72
2022-12-23T08:58:24.966Z,98.72
2022-12-23T09:00:56.935Z,98.86
2022-12-23T09:03:29.071Z,98.68
2022-12-23T09:06:02.138Z,98.49
2022-12-23T09:08:34.193Z,98.35
2022-12-23T09:11:06.479Z,98.38
2022-12-23T09:13:38.512Z,98.39
2022-12-23T09:16:11.793Z,98.55
2022-12-23T09:18:44.134Z,98.32
2022-12-23T09:21:22.920Z,98.18
2022-12-23T09:23:55.051Z,98.50
2022-12-23T09:26:28.214Z,98.16
2022-12-23T09:29:00.263Z,98.18
2022-12-23T09:31:36.653Z,97.92
2022-12-23T09:34:11.160Z,97.97
2022-12-23T09:36:43.297Z,98.10
2022-12-23T09:39:15.488Z,97.96
2022-12-23T09:42:01.525Z,98.01
2022-12-23T09:44:47.506Z,97.89
2022-12-23T09:47:23.488Z,97.93
2022-12-23T09:49:58.199Z,97.80
2022-12-23T09:52:35.438Z,97.54
2022-12-23T09:55:12.264Z,97.48
2022-12-23T09:57:49.676Z,97.28
2022-12-23T10:00:24.586Z,97.48
2022-12-23T10:03:17.517Z,97.51
2022-12-23T10:05:58.327Z,97.73
2022-12-23T10:08:33.414Z,97.71
2022-12-23T10:11:11.098Z,97.62
2022-12-23T10:13:46.875Z,97.57
2022-12-23T10:16:21.303Z,97.42
2022-12-23T10:18:56.957Z,97.65
2022-12-23T10:21:33.781Z,97.73
2022-12-23T10:24:12.360Z,97.42
2022-12-23T10:26:50.134Z,97.61
2022-12-23T10:29:25.148Z,97.58
2022-12-23T10:32:02.485Z,97.42
2022-12-23T10:34:43.256Z,97.47
2022-12-23T10:37:21.765Z,97.73
2022-12-23T10:40:02.325Z,97.92
2022-12-23T10:42:37.963Z,97.81
2022-12-23T10:45:24.702Z,97.87
2022-12-23T10:48:11.913Z,98.24
2022-12-23T10:50:53.371Z,98.07
2022-12-23T10:53:35.143Z,98.54
2022-12-23T10:56:09.425Z,98.50
2022-12-23T10:58:45.039Z,98.20
2022-12-23T11:01:26.010Z,98.35
2022-12-23T11:04:06.089Z,98.37
2022-12-23T11:06:41.446Z,98.59
2022-12-23T11:09:18.669Z,98.88
2022-12-23T11:11:58.749Z,98.83
2022-12-23T11:14:40.040Z,98.96
2022-12-23T11:17:25.796Z,99.15
2022-12-23T11:20:09.077Z,99.15
2022-12-23T11:22:50.399Z,99.52
2022-12-23T11:25:34.145Z,99.32
2022-12-23T11:28:09.413Z,99.48
2022-12-23T11:30:55.453Z,99.69
2022-12-23T11:33:30.251Z,99.47
2022-12-23T11:36:08.080Z,99.67
2022-12-23T11:38:48.284Z,99.79
2022-12-23T11:41:23.722Z,99.82
2022-12-23T11:43:59.053Z,99.79
2022-12-23T11:46:34.275Z,99.80
2022-12-23T11:49:26.163Z,99.95
2022-12-23T11:52:11.968Z,99.92
2022-12-23T11:54:44.048Z,99.94
2022-12-23T11:57:20.620Z,99.94
2022-12-23T11:59:59.047Z,100.00
2022-12-23T12:02:35.875Z,99.98
2022-12-23T12:05:18.599Z,100.00
2022-12-23T12:07:51.423Z,99.97
2022-12-23T12:10:26.439Z,100.00
2022-12-23T12:13:00.890Z,100.00
2022-12-23T12:15:43.312Z,100.00
2022-12-23T12:18:17.217Z,100.00
2022-12-23T12:20:52.536Z,100.00
2022-12-23T12:23:28.216Z,100.00
2022-12-23T12:26:04.498Z,100.00
2022-12-23T12:28:40.344Z,100.00
2022-12-23T12:31:18.713Z,100.00
2022-12-23T12:33:54.480Z,100.00
2022-12-23T12:36:34.888Z,100.00
2022-12-23T12:39:07.317Z,100.00
2022-12-23T12:41:41.047Z,100.00
2022-12-23T12:44:29.480Z,100.00
2022-12-23T12:47:27.899Z,100.00
2022-12-23T12:50:02.192Z,100.00
2022-12-23T12:52:37.563Z,100.00
2022-12-23T12:55:17.278Z,100.00
2022-12-23T12:57:49.478Z,100.00
2022-12-23T13:00:23.434Z,100.00
2022-12-23T13:03:20.321Z,100.00
2022-12-23T13:06:10.587Z,100.00
2022-12-23T13:08:55.218Z,100.00
2022-12-23T13:11:32.332Z,100.00
2022-12-23T13:14:06.976Z,100.00
2022-12-23T13:16:48.367Z,100.00
2022-12-23T13:19:25.503Z,100.00
2022-12-23T13:22:02.540Z,100.00
2022-12-23T13:24:49.610Z,100.00
2022-12-23T13:27:23.455Z,100.00
2022-12-23T13:30:13.601Z,100.00
2022-12-23T13:32:56.672Z,100.00
2022-12-23T13:35:40.602Z,100.00
2022-12-23T13:38:22.503Z,100.00
2022-12-23T13:41:02.154Z,100.00
2022-12-23T13:43:43.234Z,100.00
2022-12-23T13:46:23.648Z,100.00
2022-12-23T13:49:01.574Z,100.00
2022-12-23T13:51:36.601Z,100.00
2022-12-23T13:54:17.496Z,100.00
2022-12-23T13:56:54.271Z,100.00
2022-12-23T13:59:26.148Z,100.00
2022-12-23T14:01:57.971Z,100.00
2022-12-23T14:04:37.894Z,100.00
2022-12-23T14:07:21.286Z,100.00
2022-12-23T14:09:54.680Z,100.00
2022-12-23T14:12:30.475Z,100.00
2022-12-23T14:15:20.833Z,100.00
2022-12-23T14:18:04.444Z,100.00
2022-12-23T14:20:46.045Z,100.00
2022-12-23T14:23:31.880Z,100.00
2022-12-23T14:26:14.765Z,100.00
2022-12-23T14:28:59.222Z,100.00
2022-12-23T14:31:33.208Z,100.00
2022-12-23T14:34:07.451Z,100.00
2022-12-23T14:36:39.510Z,100.00
2022-12-23T14:39:33.576Z,100.00
2022-12-23T14:42:08.368Z,100.00
2022-12-23T14:44:51.993Z,100.00
2022-12-23T14:47:40.329Z,100.00
2022-12-23T14:50:36.655Z,100.00
2022-12-23T14:53:22.894Z,100.00
2022-12-23T14:56:13.635Z,100.00
2022-12-23T14:59:09.178Z,100.00
2022-12-23T15:01:43.335Z,100.00
2022-12-23T15:04:25.283Z,100.00
2022-12-23T15:07:00.201Z,100.00
2022-12-23T15:09:34.339Z,100.00
2022-12-23T15:12:06.468Z,100.00
2022-12-23T15:14:41.379Z,100.00
2022-12-23T15:17:24.969Z,100.00
2022-12-23T15:20:02.590Z,100.00
2022-12-23T15:22:35.501Z,100.00
2022-12-23T15:25:17.826Z,100.00
2022-12-23T15:27:51.843Z,100.00
2022-12-23T15:30:28.115Z,100.00
2022-12-23T15:33:01.872Z,100.00
2022-12-23T15:35:35.657Z,100.00
2022-12-23T15:38:08.400Z,100.00
2022-12-23T15:40:40.917Z,100.00
2022-12-23T15:43:20.269Z,100.00
2022-12-23T15:45:52.641Z,100.00
2022-12-23T15:48:29.084Z,100.00
2022-12-23T15:51:03.006Z,100.00
2022-12-23T15:53:36.706Z,100.00
2022-12-23T15:56:11.018Z,100.00
2022-12-23T15:58:44.953Z,100.00
2022-12-23T16:01:18.883Z,100.00
2022-12-23T16:03:56.132Z,100.00
2022-12-23T16:06:31.997Z,100.00
2022-12-23T16:09:06.429Z,100.00
2022-12-23T16:11:55.038Z,100.00
2022-12-23T16:14:41.004Z,100.00
2022-12-23T16:17:25.477Z,100.00
2022-12-23T16:20:08.137Z,100.00
2022-12-23T16:22:40.327Z,100.00
2022-12-23T16:25:17.606Z,100.00
2022-12-23T16:27:51.604Z,100.00
2022-12-23T16:30:25.574Z,100.00
2022-12-23T16:32:59.068Z,100.00
2022-12-23T16:35:35.904Z,100.00
2022-12-23T16:38:19.314Z,100.00
2022-12-23T16:40:52.481Z,100.00
2022-12-23T16:43:25.826Z,100.00
2022-12-23T16:45:59.890Z,100.00
2022-12-23T16:48:34.142Z,100.00
2022-12-23T16:51:05.078Z,100.00
2022-12-23T16:53:37.070Z,100.00
2022-12-23T16:56:14.646Z,100.00
2022-12-23T16:58:47.276Z,100.00
2022-12-23T17:01:22.122Z,100.00
2022-12-23T17:03:56.047Z,100.00
2022-12-23T17:06:28.489Z,100.00
2022-12-23T17:09:00.549Z,100.00
2022-12-23T17:11:40.245Z,100.00
2022-12-23T17:14:17.514Z,100.00
2022-12-23T17:16:49.775Z,100.00
2022-12-23T17:19:28.645Z,100.00
2022-12-23T17:22:04.536Z,100.00
2022-12-23T17:24:36.524Z,100.00
2022-12-23T17:27:15.152Z,100.00
2022-12-23T17:29:47.571Z,100.00
2022-12-23T17:32:20.818Z,100.00
2022-12-23T17:34:52.850Z,100.00
2022-12-23T17:37:25.045Z,100.00
2022-12-23T17:39:56.873Z,100.00
2022-12-23T17:42:28.822Z,100.00
2022-12-23T17:45:01.037Z,100.00
2022-12-23T17:47:32.847Z,100.00
2022-12-23T17:50:04.822Z,100.00
2022-12-23T17:52:38.918Z,100.00
2022-12-23T17:55:10.769Z,100.00
2022-12-23T17:57:42.612Z,100.00
2022-12-23T18:00:25.185Z,100.00
2022-12-23T18:03:01.632Z,100.00
2022-12-23T18:05:36.429Z,100.00
2022-12-23T18:08:08.427Z,100.00
2022-12-23T18:10:42.330Z,100.00
2022-12-23T18:13:18.105Z,100.00
2022-12-23T18:15:49.959Z,100.00
2022-12-23T18:18:31.321Z,100.00
2022-12-23T18:21:08.153Z,100.00
2022-12-23T18:23:40.037Z,100.00
2022-12-23T18:26:16.179Z,100.00
2022-12-23T18:28:48.293Z,100.00
2022-12-23T18:31:22.159Z,100.00
2022-12-23T18:33:54.622Z,100.00
2022-12-23T18:36:28.928Z,100.00
2022-12-23T18:39:00.897Z,100.00
2022-12-23T18:41:33.009Z,100.00
2022-12-23T18:44:04.964Z,100.00
2022-12-23T18:46:36.946Z,100.00
2022-12-23T18:49:09.030Z,100.00
2022-12-23T18:51:41.595Z,100.00
2022-12-23T18:54:17.959Z,100.00
2022-12-23T18:56:49.410Z,100.00
2022-12-23T18:59:29.601Z,100.00
2022-12-23T19:02:03.048Z,100.00
2022-12-23T19:04:37.565Z,100.00
2022-12-23T19:07:10.361Z,100.00
2022-12-23T19:09:42.297Z,100.00
2022-12-23T19:12:14.457Z,100.00
2022-12-23T19:14:47.500Z,100.00
2022-12-23T19:17:19.653Z,100.00
2022-12-23T19:19:51.848Z,100.00
2022-12-23T19:22:26.585Z,100.00
2022-12-23T19:25:05.833Z,100.00
2022-12-23T19:27:38.904Z,100.00
2022-12-23T19:30:15.035Z,100.00
2022-12-23T19:32:51.731Z,100.00
2022-12-23T19:35:23.930Z,100.00
2022-12-23T19:37:55.884Z,100.00
2022-12-23T19:40:27.774Z,100.00
2022-12-23T19:42:59.586Z,100.00
2022-12-23T19:45:31.508Z,100.00
2022-12-23T19:48:03.812Z,100.00
2022-12-23T19:50:35.809Z,100.00
2022-12-23T19:53:08.341Z,100.00
2022-12-23T19:55:40.275Z,100.00
2022-12-23T19:58:12.376Z,100.00
2022-12-23T20:00:44.560Z,100.00
2022-12-23T20:03:16.599Z,100.00
2022-12-23T20:05:51.709Z,100.00
2022-12-23T20:08:23.810Z,100.00
2022-12-23T20:11:05.051Z,100.00
2022-12-23T20:13:37.863Z,100.00
2022-12-23T20:16:11.242Z,100.00
2022-12-23T20:18:43.568Z,100.00
2022-12-23T20:21:15.797Z,100.00
2022-12-23T20:23:47.702Z,100.00
2022-12-23T20:26:22.541Z,100.00
2022-12-23T20:28:54.635Z,100.00
2022-12-23T20:31:27.569Z,100.00
2022-12-23T20:34:01.568Z,100.00
2022-12-23T20:36:39.848Z,100.00
2022-12-23T20:39:11.961Z,100.00
2022-12-23T20:41:43.837Z,100.00
2022-12-23T20:47:07.985Z,100.00
2022-12-23T20:49:39.916Z,100.00
2022-12-23T20:52:11.931Z,100.00
2022-12-23T20:54:43.805Z,100.00
2022-12-23T20:57:15.792Z,100.00
2022-12-23T20:59:47.676Z,100.00
2022-12-23T21:02:19.587Z,100.00
2022-12-23T21:04:51.735Z,100.00
2022-12-23T21:07:26.343Z,100.00
2022-12-23T21:09:58.150Z,100.00
2022-12-23T21:12:30.528Z,100.00
2022-12-23T21:15:02.729Z,100.00
2022-12-23T21:17:34.904Z,100.00
2022-12-23T21:20:09.229Z,100.00
2022-12-23T21:22:41.344Z,100.00
2022-12-23T21:25:22.527Z,100.00
2022-12-23T21:27:56.590Z,100.00
2022-12-23T21:30:28.508Z,100.00
2022-12-23T21:33:03.765Z,100.00
2022-12-23T21:35:37.503Z,100.00
2022-12-23T21:38:10.739Z,100.00
2022-12-23T21:40:43.098Z,100.00
2022-12-23T21:43:15.214Z,100.00
2022-12-23T21:45:47.385Z,100.00
2022-12-23T21:48:19.238Z,100.00
2022-12-23T21:50:51.177Z,100.00
2022-12-23T21:53:31.285Z,100.00
2022-12-23T21:56:15.851Z,100.00
2022-12-23T21:58:54.931Z,100.00
2022-12-23T22:01:27.402Z,100.00
2022-12-23T22:04:05.261Z,100.00
2022-12-23T22:06:48.375Z,100.00
2022-12-23T22:09:24.495Z,100.00
2022-12-23T22:11:59.886Z,100.00
2022-12-23T22:14:39.209Z,100.00
2022-12-23T22:17:19.297Z,100.00
2022-12-23T22:19:59.523Z,99.98
2022-12-23T22:22:36.188Z,100.00
2022-12-23T22:25:21.043Z,100.00
2022-12-23T22:27:56.473Z,100.00
2022-12-23T22:30:29.077Z,100.00
2022-12-23T22:33:12.737Z,100.00
2022-12-23T22:36:01.110Z,100.00
2022-12-23T22:38:41.481Z,100.00
2022-12-23T22:41:16.812Z,100.00
2022-12-23T22:44:03.200Z,100.00
2022-12-23T22:46:43.112Z,100.00
2022-12-23T22:49:22.364Z,100.00
2022-12-23T22:51:58.713Z,100.00
2022-12-23T22:54:43.689Z,100.00
2022-12-23T22:57:25.755Z,100.00
2022-12-23T23:00:07.885Z,100.00
2022-12-23T23:02:58.764Z,100.00
2022-12-23T23:05:42.747Z,100.00
2022-12-23T23:08:18.856Z,100.00
2022-12-23T23:10:54.757Z,100.00
2022-12-23T23:13:28.203Z,100.00
2022-12-23T23:16:07.889Z,99.94
2022-12-23T23:18:40.477Z,99.96
2022-12-23T23:21:15.698Z,100.00
2022-12-23T23:23:57.616Z,99.97
2022-12-23T23:26:41.855Z,99.99
2022-12-23T23:29:16.201Z,100.00
2022-12-23T23:31:48.118Z,100.00
2022-12-23T23:34:20.168Z,99.93
2022-12-23T23:36:52.074Z,100.00
2022-12-23T23:39:24.102Z,99.95
2022-12-23T23:41:56.015Z,99.98
2022-12-23T23:44:27.991Z,100.00
2022-12-23T23:46:59.816Z,99.99
2022-12-23T23:49:31.735Z,99.99
2022-12-23T23:52:03.581Z,99.95
2022-12-23T23:54:35.665Z,100.00
2022-12-23T23:57:07.545Z,100.00
2022-12-23T23:59:39.347Z,100.00
